Time;durP1;ratioP1;P1;durP2;ratioP2;P2;SDS_P1;SDS_P2;PMS_P1;PMS_P2;Temp;Humidity;BMP_temperature;BMP_pressure;BME280_temperature;BME280_humidity;BME280_pressure;Samples;Min_cycle;Max_cycle;Signal;HPM_P1;HPM_P2
2023/08/04 00:00:13;;;;;;;19.98;5.95;;;;;;;;;;4974934;28;20410;-81
2023/08/04 00:02:45;;;;;;;18.35;6.22;;;;;;;;;;4955820;29;20066;-82
2023/08/04 00:05:16;;;;;;;15.10;5.88;;;;;;;;;;4955715;28;20051;-82
2023/08/04 00:07:46;;;;;;;14.73;5.88;;;;;;;;;;4956028;29;20055;-82
2023/08/04 00:10:21;;;;;;;14.00;5.70;;;;;;;;;;4937887;29;20051;-82
2023/08/04 00:12:52;;;;;;;14.50;5.60;;;;;;;;;;4948283;28;20047;-83
2023/08/04 00:15:22;;;;;;;14.75;6.20;;;;;;;;;;4974694;28;20043;-82
2023/08/04 00:17:52;;;;;;;18.88;5.70;;;;;;;;;;4974780;28;20047;-84
2023/08/04 00:20:26;;;;;;;17.00;5.93;;;;;;;;;;4974719;28;20043;-81
2023/08/04 00:22:59;;;;;;;13.18;5.63;;;;;;;;;;4974562;28;20417;-81
2023/08/04 00:25:31;;;;;;;13.55;5.70;;;;;;;;;;4974793;28;20046;-81
2023/08/04 00:28:01;;;;;;;12.10;5.28;;;;;;;;;;4974719;28;20462;-81
2023/08/04 00:30:32;;;;;;;18.33;5.50;;;;;;;;;;4956782;28;20050;-82
2023/08/04 00:33:03;;;;;;;14.75;5.40;;;;;;;;;;4974196;28;20453;-81
2023/08/04 00:35:34;;;;;;;12.60;6.30;;;;;;;;;;4972196;28;20062;-82
2023/08/04 00:38:06;;;;;;;16.15;6.50;;;;;;;;;;4956798;28;20047;-80
2023/08/04 00:40:38;;;;;;;15.98;7.10;;;;;;;;;;4974416;28;20362;-81
2023/08/04 00:43:11;;;;;;;19.20;7.03;;;;;;;;;;4956429;28;20047;-80
2023/08/04 00:45:42;;;;;;;15.95;6.63;;;;;;;;;;4974203;28;20046;-81
2023/08/04 00:48:15;;;;;;;11.43;5.53;;;;;;;;;;4974384;28;20485;-81
2023/08/04 00:50:46;;;;;;;15.13;5.90;;;;;;;;;;4972444;28;20049;-82
2023/08/04 00:53:21;;;;;;;18.13;5.78;;;;;;;;;;4956449;28;20417;-81
2023/08/04 00:55:52;;;;;;;16.52;6.90;;;;;;;;;;4973932;28;20507;-81
2023/08/04 00:58:23;;;;;;;16.20;5.70;;;;;;;;;;4969184;28;20050;-81
2023/08/04 01:00:56;;;;;;;15.88;6.40;;;;;;;;;;4955693;28;20050;-81
2023/08/04 01:03:28;;;;;;;18.00;6.20;;;;;;;;;;4971779;28;20055;-81
2023/08/04 01:06:08;;;;;;;16.83;6.38;;;;;;;;;;4971608;28;20065;-82
2023/08/04 01:08:48;;;;;;;16.17;6.30;;;;;;;;;;4972166;28;20047;-81
2023/08/04 01:11:30;;;;;;;17.55;7.20;;;;;;;;;;4973666;28;20083;-82
2023/08/04 01:14:05;;;;;;;16.83;7.88;;;;;;;;;;4940797;28;20047;-82
2023/08/04 01:16:37;;;;;;;22.60;7.20;;;;;;;;;;4940418;28;20050;-82
2023/08/04 01:19:07;;;;;;;21.38;8.02;;;;;;;;;;4955538;28;20055;-81
2023/08/04 01:21:43;;;;;;;17.25;7.50;;;;;;;;;;4956753;28;20066;-81
2023/08/04 01:24:16;;;;;;;20.38;7.13;;;;;;;;;;4973731;28;20498;-81
2023/08/04 01:26:49;;;;;;;23.00;8.60;;;;;;;;;;4955642;28;20421;-81
2023/08/04 01:29:25;;;;;;;18.33;7.20;;;;;;;;;;4955782;28;20043;-81
2023/08/04 01:31:55;;;;;;;19.00;6.63;;;;;;;;;;4973046;28;20053;-82
2023/08/04 01:34:29;;;;;;;14.80;6.45;;;;;;;;;;4956435;28;20050;-82
2023/08/04 01:37:01;;;;;;;14.48;6.70;;;;;;;;;;4973147;28;20046;-81
2023/08/04 01:39:30;;;;;;;17.55;6.40;;;;;;;;;;4971792;28;20046;-82
2023/08/04 01:42:02;;;;;;;18.00;8.38;;;;;;;;;;4973011;28;20445;-82
2023/08/04 01:44:34;;;;;;;13.85;6.30;;;;;;;;;;4972926;28;20051;-82
2023/08/04 01:47:07;;;;;;;25.08;6.93;;;;;;;;;;4973367;28;20069;-82
2023/08/04 01:49:37;;;;;;;18.08;6.57;;;;;;;;;;4971292;28;20059;-82
2023/08/04 01:52:08;;;;;;;14.05;6.53;;;;;;;;;;4940292;28;20779;-81
2023/08/04 01:54:40;;;;;;;15.18;6.80;;;;;;;;;;4970952;28;20078;-82
2023/08/04 01:57:11;;;;;;;17.42;6.93;;;;;;;;;;4955592;28;20054;-82
2023/08/04 01:59:43;;;;;;;13.60;6.43;;;;;;;;;;4973111;28;20102;-82
2023/08/04 02:02:15;;;;;;;16.77;6.20;;;;;;;;;;4939398;28;20051;-81
2023/08/04 02:04:48;;;;;;;12.98;5.78;;;;;;;;;;4972686;28;20047;-82
2023/08/04 02:07:19;;;;;;;16.30;5.95;;;;;;;;;;4972121;28;20059;-82
2023/08/04 02:09:52;;;;;;;14.52;5.85;;;;;;;;;;4954943;28;20047;-83
2023/08/04 02:12:25;;;;;;;16.13;6.40;;;;;;;;;;4972753;28;20043;-82
2023/08/04 02:14:57;;;;;;;20.02;6.10;;;;;;;;;;4972850;28;20061;-82
2023/08/04 02:17:27;;;;;;;16.10;6.15;;;;;;;;;;4972761;28;20061;-82
2023/08/04 02:19:58;;;;;;;13.60;6.10;;;;;;;;;;4959332;28;20433;-83
2023/08/04 02:22:29;;;;;;;18.25;6.82;;;;;;;;;;4961544;28;20050;-82
2023/08/04 02:25:02;;;;;;;15.88;6.40;;;;;;;;;;4972376;28;20050;-84
2023/08/04 02:27:32;;;;;;;14.60;6.53;;;;;;;;;;4973792;28;20058;-81
2023/08/04 02:30:06;;;;;;;14.70;5.88;;;;;;;;;;4956424;28;20050;-83
2023/08/04 02:32:39;;;;;;;17.20;6.43;;;;;;;;;;4974807;28;20046;-82
2023/08/04 02:35:11;;;;;;;13.98;6.60;;;;;;;;;;4974529;28;20043;-83
2023/08/04 02:37:41;;;;;;;14.38;6.82;;;;;;;;;;4956666;28;20051;-84
2023/08/04 02:40:12;;;;;;;17.85;7.10;;;;;;;;;;4956425;28;20375;-83
2023/08/04 02:42:43;;;;;;;15.43;6.43;;;;;;;;;;4956626;28;20066;-84
2023/08/04 02:45:18;;;;;;;20.10;6.78;;;;;;;;;;4974424;28;20051;-82
2023/08/04 02:47:49;;;;;;;15.40;7.22;;;;;;;;;;4955669;28;20051;-84
2023/08/04 02:50:23;;;;;;;15.70;7.53;;;;;;;;;;4972573;28;20047;-84
2023/08/04 02:52:53;;;;;;;19.33;7.90;;;;;;;;;;4955835;28;20111;-83
2023/08/04 02:55:24;;;;;;;16.45;7.28;;;;;;;;;;4940924;28;20047;-82
2023/08/04 02:57:54;;;;;;;20.42;8.65;;;;;;;;;;4974210;28;20047;-82
2023/08/04 03:00:26;;;;;;;;;;;;;;;;;;4956610;28;20057;-82
2023/08/04 03:02:59;;;;;;;16.27;6.65;;;;;;;;;;4973799;28;20369;-83
2023/08/04 03:05:35;;;;;;;17.70;6.75;;;;;;;;;;4973783;28;20473;-83
2023/08/04 03:08:06;;;;;;;14.68;6.25;;;;;;;;;;4974150;28;20047;-84
2023/08/04 03:10:42;;;;;;;15.77;6.45;;;;;;;;;;4956140;28;20061;-83
2023/08/04 03:13:14;;;;;;;15.32;6.57;;;;;;;;;;4974098;28;20042;-82
2023/08/04 03:15:45;;;;;;;16.33;6.95;;;;;;;;;;4973973;28;20050;-84
2023/08/04 03:18:16;;;;;;;;;;;;;;;;;;4974748;28;20047;-81
2023/08/04 03:20:46;;;;;;;16.33;6.90;;;;;;;;;;4959733;28;19922;-82
2023/08/04 03:23:19;;;;;;;14.10;7.07;;;;;;;;;;4977949;28;20046;-84
2023/08/04 03:25:56;;;;;;;18.27;6.38;;;;;;;;;;4961331;28;20074;-84
2023/08/04 03:28:27;;;;;;;14.90;6.20;;;;;;;;;;4977501;28;20039;-81
2023/08/04 03:30:58;;;;;;;12.07;5.60;;;;;;;;;;4977676;28;20050;-82
2023/08/04 03:33:30;;;;;;;17.95;6.35;;;;;;;;;;4977322;28;20047;-82
2023/08/04 03:36:01;;;;;;;12.15;6.05;;;;;;;;;;4977422;28;20047;-82
2023/08/04 03:38:32;;;;;;;15.20;6.70;;;;;;;;;;4977747;28;20047;-83
2023/08/04 03:41:02;;;;;;;16.83;7.75;;;;;;;;;;4977249;28;20374;-82
2023/08/04 03:43:34;;;;;;;17.38;7.25;;;;;;;;;;4977533;28;20383;-82
2023/08/04 03:46:05;;;;;;;14.63;6.53;;;;;;;;;;4976982;28;20058;-83
2023/08/04 03:48:36;;;;;;;17.70;6.68;;;;;;;;;;4977283;28;20047;-81
2023/08/04 03:51:06;;;;;;;15.55;6.35;;;;;;;;;;4976894;28;20053;-82
2023/08/04 03:53:39;;;;;;;14.63;6.22;;;;;;;;;;4976981;28;20070;-83
2023/08/04 03:56:10;;;;;;;14.05;6.53;;;;;;;;;;4977089;28;20047;-83
2023/08/04 03:58:42;;;;;;;;;;;;;;;;;;4976997;28;20042;-82
2023/08/04 04:01:12;;;;;;;21.48;7.65;;;;;;;;;;4976930;28;19941;-83
2023/08/04 04:03:45;;;;;;;17.45;7.53;;;;;;;;;;4977161;28;20054;-84
2023/08/04 04:06:19;;;;;;;18.70;8.00;;;;;;;;;;4975662;28;20054;-82
2023/08/04 04:08:50;;;;;;;19.02;7.80;;;;;;;;;;4976446;28;20058;-83
2023/08/04 04:11:20;;;;;;;17.30;6.47;;;;;;;;;;4958520;28;20417;-82
2023/08/04 04:13:52;;;;;;;18.60;7.30;;;;;;;;;;4976859;28;20057;-82
2023/08/04 04:16:26;;;;;;;17.30;7.60;;;;;;;;;;4976984;28;20054;-82
2023/08/04 04:18:57;;;;;;;15.40;6.93;;;;;;;;;;4976727;28;20050;-81
2023/08/04 04:21:27;;;;;;;19.42;7.05;;;;;;;;;;4976984;28;20055;-82
2023/08/04 04:23:59;;;;;;;15.98;6.13;;;;;;;;;;4977048;28;20042;-82
2023/08/04 04:26:30;;;;;;;15.73;6.72;;;;;;;;;;4976896;28;20042;-82
2023/08/04 04:29:00;;;;;;;18.10;6.00;;;;;;;;;;4958058;28;20047;-81
2023/08/04 04:31:30;;;;;;;17.63;6.25;;;;;;;;;;4975908;28;20058;-82
2023/08/04 04:34:01;;;;;;;20.58;6.68;;;;;;;;;;4958304;28;20055;-83
2023/08/04 04:36:31;;;;;;;11.90;6.22;;;;;;;;;;4976062;28;20512;-83
2023/08/04 04:39:03;;;;;;;22.27;6.70;;;;;;;;;;4976344;28;20046;-82
2023/08/04 04:41:37;;;;;;;18.67;6.70;;;;;;;;;;4959944;28;20047;-83
2023/08/04 04:44:07;;;;;;;11.57;5.38;;;;;;;;;;4976083;28;20054;-85
2023/08/04 04:46:39;;;;;;;13.55;5.57;;;;;;;;;;4976108;28;20058;-84
2023/08/04 04:49:09;;;;;;;14.82;5.88;;;;;;;;;;4976673;28;20058;-82
2023/08/04 04:51:43;;;;;;;10.98;5.20;;;;;;;;;;4958506;28;20058;-82
2023/08/04 04:54:17;;;;;;;17.15;6.28;;;;;;;;;;4976287;28;20051;-82
2023/08/04 04:56:49;;;;;;;14.40;5.80;;;;;;;;;;4976168;28;20055;-81
2023/08/04 04:59:21;;;;;;;14.48;5.65;;;;;;;;;;4976225;28;20047;-83
2023/08/04 05:01:53;;;;;;;11.80;5.40;;;;;;;;;;4975734;28;20058;-82
2023/08/04 05:04:26;;;;;;;16.58;5.90;;;;;;;;;;4973762;28;20490;-82
2023/08/04 05:06:57;;;;;;;12.18;5.28;;;;;;;;;;4959345;28;20066;-81
2023/08/04 05:09:28;;;;;;;14.18;6.20;;;;;;;;;;4976153;28;20504;-82
2023/08/04 05:12:01;;;;;;;14.20;6.10;;;;;;;;;;4957960;28;20051;-83
2023/08/04 05:14:33;;;;;;;16.50;7.05;;;;;;;;;;4957483;28;20050;-84
2023/08/04 05:17:04;;;;;;;20.73;6.85;;;;;;;;;;4975855;28;20038;-82
2023/08/04 05:19:34;;;;;;;15.82;6.93;;;;;;;;;;4976041;28;20054;-81
2023/08/04 05:22:06;;;;;;;15.73;6.25;;;;;;;;;;4958822;28;20104;-82
2023/08/04 05:24:36;;;;;;;14.02;6.15;;;;;;;;;;4956942;28;20051;-82
2023/08/04 05:27:08;;;;;;;13.45;6.05;;;;;;;;;;4958551;28;20054;-82
2023/08/04 05:29:39;;;;;;;13.95;6.05;;;;;;;;;;4957533;28;20213;-82
2023/08/04 05:32:12;;;;;;;14.70;6.13;;;;;;;;;;4975309;28;20043;-84
2023/08/04 05:34:42;;;;;;;15.13;6.55;;;;;;;;;;4973019;28;20047;-83
2023/08/04 05:37:13;;;;;;;12.63;5.78;;;;;;;;;;4975462;28;20046;-82
2023/08/04 05:39:46;;;;;;;14.70;6.15;;;;;;;;;;4975020;28;20486;-81
2023/08/04 05:42:16;;;;;;;13.27;5.65;;;;;;;;;;4957830;28;20038;-83
2023/08/04 05:44:46;;;;;;;13.50;5.90;;;;;;;;;;4975048;28;20043;-82
2023/08/04 05:47:17;;;;;;;12.18;5.13;;;;;;;;;;4973488;28;20057;-83
2023/08/04 05:49:49;;;;;;;13.25;5.60;;;;;;;;;;4957511;28;20061;-81
2023/08/04 05:52:23;;;;;;;11.35;5.45;;;;;;;;;;4974832;28;20057;-82
2023/08/04 05:54:56;;;;;;;14.35;5.30;;;;;;;;;;4975317;28;20505;-82
2023/08/04 05:57:27;;;;;;;13.18;5.68;;;;;;;;;;4975193;28;20477;-81
2023/08/04 05:59:57;;;;;;;15.57;5.47;;;;;;;;;;4975097;28;20051;-80
2023/08/04 06:02:32;;;;;;;13.43;5.28;;;;;;;;;;4975803;28;20594;-81
2023/08/04 06:05:03;;;;;;;14.00;5.82;;;;;;;;;;4974720;28;20046;-81
2023/08/04 06:07:35;;;;;;;12.70;5.75;;;;;;;;;;4956811;28;20070;-82
2023/08/04 06:10:06;;;;;;;12.15;5.35;;;;;;;;;;4974755;28;20111;-81
2023/08/04 06:12:38;;;;;;;14.13;5.80;;;;;;;;;;4957917;28;20058;-82
2023/08/04 06:15:12;;;;;;;13.32;5.15;;;;;;;;;;4957576;28;20055;-83
2023/08/04 06:17:44;;;;;;;12.75;5.53;;;;;;;;;;4974893;28;20046;-83
2023/08/04 06:20:14;;;;;;;14.02;5.65;;;;;;;;;;4974704;28;20051;-83
2023/08/04 06:22:49;;;;;;;16.35;6.38;;;;;;;;;;4957388;28;20505;-81
2023/08/04 06:25:28;;;;;;;11.90;6.00;;;;;;;;;;4974383;28;20054;-82
2023/08/04 06:27:59;;;;;;;12.45;6.22;;;;;;;;;;4974763;28;20043;-81
2023/08/04 06:30:30;;;;;;;15.63;5.53;;;;;;;;;;4974160;28;20091;-81
2023/08/04 06:33:01;;;;;;;13.27;6.07;;;;;;;;;;4974663;28;20063;-81
2023/08/04 06:35:32;;;;;;;14.80;6.05;;;;;;;;;;4973962;28;20061;-81
2023/08/04 06:38:03;;;;;;;14.73;6.20;;;;;;;;;;4974222;28;20043;-83
2023/08/04 06:40:34;;;;;;;16.15;6.18;;;;;;;;;;4956465;28;20047;-82
2023/08/04 06:43:06;;;;;;;12.50;5.47;;;;;;;;;;4974489;28;20053;-82
2023/08/04 06:45:38;;;;;;;12.85;5.22;;;;;;;;;;4972662;28;20061;-82
2023/08/04 06:48:10;;;;;;;14.55;6.00;;;;;;;;;;4956936;28;20046;-82
2023/08/04 06:50:41;;;;;;;13.10;5.57;;;;;;;;;;4937651;29;20453;-84
2023/08/04 06:53:11;;;;;;;15.25;6.65;;;;;;;;;;4956191;28;20050;-83
2023/08/04 06:55:44;;;;;;;16.58;6.03;;;;;;;;;;4960356;29;20051;-84
2023/08/04 06:58:15;;;;;;;14.18;5.70;;;;;;;;;;4961454;28;20043;-82
2023/08/04 07:00:46;;;;;;;16.95;6.25;;;;;;;;;;4960942;29;20051;-82
2023/08/04 07:03:18;;;;;;;15.88;6.13;;;;;;;;;;4961079;29;20051;-83
2023/08/04 07:05:50;;;;;;;12.27;5.85;;;;;;;;;;4960761;28;20070;-82
2023/08/04 07:08:20;;;;;;;13.63;5.82;;;;;;;;;;4960989;28;20047;-84
2023/08/04 07:10:51;;;;;;;15.18;6.22;;;;;;;;;;4958969;29;20055;-82
2023/08/04 07:13:24;;;;;;;12.23;5.70;;;;;;;;;;4961257;29;20066;-82
2023/08/04 07:15:59;;;;;;;12.27;6.00;;;;;;;;;;4958787;28;20055;-82
2023/08/04 07:18:29;;;;;;;12.52;5.88;;;;;;;;;;4961480;28;20394;-82
2023/08/04 07:21:07;;;;;;;15.13;5.70;;;;;;;;;;4961260;29;20494;-82
2023/08/04 07:23:40;;;;;;;11.43;5.47;;;;;;;;;;4959924;29;20051;-81
2023/08/04 07:26:11;;;;;;;13.32;5.65;;;;;;;;;;4961211;29;20047;-83
2023/08/04 07:28:41;;;;;;;11.80;5.63;;;;;;;;;;4961265;28;20054;-82
2023/08/04 07:31:13;;;;;;;;;;;;;;;;;;4961859;28;20050;-82
2023/08/04 07:33:44;;;;;;;12.40;5.45;;;;;;;;;;4961071;28;19922;-84
2023/08/04 07:36:16;;;;;;;13.55;6.00;;;;;;;;;;4958967;29;20055;-83
2023/08/04 07:38:47;;;;;;;13.48;6.07;;;;;;;;;;4961076;29;20062;-84
2023/08/04 07:41:20;;;;;;;10.77;5.28;;;;;;;;;;4960846;28;20051;-82
2023/08/04 07:43:53;;;;;;;14.10;6.38;;;;;;;;;;4960994;28;20490;-82
2023/08/04 07:46:29;;;;;;;11.88;5.82;;;;;;;;;;4960641;28;20050;-83
2023/08/04 07:48:59;;;;;;;15.50;6.20;;;;;;;;;;4961011;29;20051;-82
2023/08/04 07:51:32;;;;;;;15.93;6.20;;;;;;;;;;4960427;28;20058;-82
2023/08/04 07:54:05;;;;;;;14.88;6.07;;;;;;;;;;4961385;29;20386;-84
2023/08/04 07:56:44;;;;;;;12.18;5.05;;;;;;;;;;4961139;28;20475;-83
2023/08/04 07:59:15;;;;;;;12.05;5.03;;;;;;;;;;4960661;28;20114;-81
2023/08/04 08:01:47;;;;;;;10.73;5.30;;;;;;;;;;4960789;28;20509;-82
2023/08/04 08:04:19;;;;;;;14.35;5.15;;;;;;;;;;4961278;28;20055;-83
2023/08/04 08:06:55;;;;;;;12.07;5.85;;;;;;;;;;4956718;29;20051;-83
2023/08/04 08:09:26;;;;;;;9.65;4.82;;;;;;;;;;4957557;29;20047;-82
2023/08/04 08:11:56;;;;;;;11.55;5.18;;;;;;;;;;4957372;29;20043;-83
2023/08/04 08:14:28;;;;;;;11.10;5.10;;;;;;;;;;4956426;29;20351;-82
2023/08/04 08:17:02;;;;;;;12.80;5.45;;;;;;;;;;4971581;28;20058;-83
2023/08/04 08:19:33;;;;;;;12.85;5.47;;;;;;;;;;4940743;29;20055;-84
2023/08/04 08:22:03;;;;;;;16.10;5.60;;;;;;;;;;4957297;29;20381;-83
2023/08/04 08:24:34;;;;;;;11.80;5.22;;;;;;;;;;4957210;29;20493;-82
2023/08/04 08:27:07;;;;;;;11.75;5.10;;;;;;;;;;4971870;28;20058;-82
2023/08/04 08:29:41;;;;;;;13.20;5.13;;;;;;;;;;4955845;29;20058;-82
2023/08/04 08:32:11;;;;;;;10.88;5.00;;;;;;;;;;4971979;28;20070;-81
2023/08/04 08:34:42;;;;;;;11.13;5.10;;;;;;;;;;4957741;29;20051;-82
2023/08/04 08:37:16;;;;;;;18.23;6.10;;;;;;;;;;4957522;29;20043;-81
2023/08/04 08:39:47;;;;;;;11.63;4.97;;;;;;;;;;4957339;29;20051;-82
2023/08/04 08:42:19;;;;;;;13.45;5.75;;;;;;;;;;4955773;29;20426;-81
2023/08/04 08:44:50;;;;;;;12.68;5.68;;;;;;;;;;4956862;29;20043;-84
2023/08/04 08:47:24;;;;;;;12.10;5.80;;;;;;;;;;4957172;29;20047;-82
2023/08/04 08:50:00;;;;;;;10.95;5.88;;;;;;;;;;4957185;29;20058;-82
2023/08/04 08:52:38;;;;;;;11.68;5.80;;;;;;;;;;4957238;29;20510;-82
2023/08/04 08:55:12;;;;;;;14.20;5.03;;;;;;;;;;4956728;29;20069;-82
2023/08/04 08:57:43;;;;;;;10.50;5.13;;;;;;;;;;4956892;29;20055;-82
2023/08/04 09:00:14;;;;;;;10.82;5.15;;;;;;;;;;4956515;29;20051;-82
2023/08/04 09:02:48;;;;;;;12.05;5.18;;;;;;;;;;4956578;29;20058;-84
2023/08/04 09:05:24;;;;;;;12.95;5.50;;;;;;;;;;4956349;29;20055;-82
2023/08/04 09:07:55;;;;;;;11.95;5.53;;;;;;;;;;4970857;28;20059;-82
2023/08/04 09:10:25;;;;;;;14.55;6.18;;;;;;;;;;4955501;29;20051;-82
2023/08/04 09:12:57;;;;;;;14.07;5.85;;;;;;;;;;4956755;29;20043;-85
2023/08/04 09:15:46;;;;;;;17.08;6.32;;;;;;;;;;4955166;29;20051;-82
2023/08/04 09:18:27;;;;;;;12.93;6.35;;;;;;;;;;4955982;29;20066;-81
2023/08/04 09:21:08;;;;;;;16.05;6.25;;;;;;;;;;4954733;29;20051;-82
2023/08/04 09:23:54;;;;;;;13.15;6.53;;;;;;;;;;4956656;29;20595;-82
2023/08/04 09:26:27;;;;;;;17.70;6.25;;;;;;;;;;4954727;29;20051;-83
2023/08/04 09:29:06;;;;;;;14.98;5.53;;;;;;;;;;4956039;29;20047;-82
2023/08/04 09:31:39;;;;;;;14.10;6.55;;;;;;;;;;4956470;29;20062;-84
2023/08/04 09:34:11;;;;;;;12.23;6.00;;;;;;;;;;4956066;29;20368;-80
2023/08/04 09:36:45;;;;;;;10.93;5.35;;;;;;;;;;4970549;28;20398;-82
2023/08/04 09:39:18;;;;;;;12.55;5.05;;;;;;;;;;4955845;29;20047;-82
2023/08/04 09:41:50;;;;;;;13.57;5.43;;;;;;;;;;4954977;29;20064;-82
2023/08/04 09:44:20;;;;;;;12.00;5.18;;;;;;;;;;4956621;29;20058;-81
2023/08/04 09:46:53;;;;;;;14.77;5.47;;;;;;;;;;4955816;29;20502;-81
2023/08/04 09:49:25;;;;;;;10.23;5.03;;;;;;;;;;4955692;29;20050;-81
2023/08/04 09:51:56;;;;;;;11.68;5.40;;;;;;;;;;4953533;29;20055;-82
2023/08/04 09:54:31;;;;;;;13.43;6.32;;;;;;;;;;4953630;29;20051;-82
2023/08/04 09:57:08;;;;;;;19.50;7.72;;;;;;;;;;4969575;28;20058;-82
2023/08/04 09:59:41;;;;;;;18.27;8.60;;;;;;;;;;4953387;29;20368;-81
2023/08/04 10:02:14;;;;;;;15.80;7.53;;;;;;;;;;4953389;29;20074;-81
2023/08/04 10:04:51;;;;;;;13.88;7.30;;;;;;;;;;4955258;29;20391;-82
2023/08/04 10:07:24;;;;;;;13.60;7.10;;;;;;;;;;4955403;29;20051;-82
2023/08/04 10:10:00;;;;;;;13.23;7.05;;;;;;;;;;4955598;29;20039;-82
2023/08/04 10:12:33;;;;;;;16.10;6.78;;;;;;;;;;4970091;28;20054;-82
2023/08/04 10:15:05;;;;;;;13.13;6.63;;;;;;;;;;4958317;28;20051;-82
2023/08/04 10:17:41;;;;;;;16.70;7.00;;;;;;;;;;4973729;28;20034;-82
2023/08/04 10:20:14;;;;;;;;;;;;;;;;;;4962513;28;20054;-81
2023/08/04 10:22:44;;;;;;;13.00;7.20;;;;;;;;;;4960354;28;19922;-81
2023/08/04 10:25:15;;;;;;;16.10;7.60;;;;;;;;;;4969395;28;20048;-81
2023/08/04 10:27:50;;;;;;;22.27;7.82;;;;;;;;;;4967735;28;20046;-84
2023/08/04 10:30:25;;;;;;;16.88;7.53;;;;;;;;;;4967100;28;20054;-82
2023/08/04 10:33:21;;;;;;;15.48;8.10;;;;;;;;;;4955337;28;20047;-82
2023/08/04 10:36:09;;;;;;;15.60;7.80;;;;;;;;;;4953140;29;20047;-82
2023/08/04 10:38:45;;;;;;;19.95;8.52;;;;;;;;;;4963986;28;20042;-83
2023/08/04 10:41:22;;;;;;;18.42;7.72;;;;;;;;;;4972358;28;20047;-81
2023/08/04 10:44:02;;;;;;;17.88;8.02;;;;;;;;;;4954293;28;20094;-82
2023/08/04 10:46:35;;;;;;;20.33;9.13;;;;;;;;;;4972288;28;20058;-82
2023/08/04 10:49:07;;;;;;;18.98;8.00;;;;;;;;;;4972240;28;20421;-81
2023/08/04 10:51:41;;;;;;;17.58;8.20;;;;;;;;;;4953635;28;20043;-81
2023/08/04 10:54:12;;;;;;;19.33;8.20;;;;;;;;;;4972173;28;20073;-83
2023/08/04 10:56:48;;;;;;;23.23;7.45;;;;;;;;;;4970955;28;20057;-83
2023/08/04 10:59:19;;;;;;;22.63;8.50;;;;;;;;;;4972188;28;20043;-85
2023/08/04 11:01:53;;;;;;;23.85;8.50;;;;;;;;;;4972246;28;20501;-82
2023/08/04 11:04:23;;;;;;;27.83;9.30;;;;;;;;;;4954234;28;20050;-82
2023/08/04 11:06:58;;;;;;;27.70;9.43;;;;;;;;;;4972121;28;20054;-82
2023/08/04 11:09:33;;;;;;;20.33;9.40;;;;;;;;;;4955228;28;20494;-83
2023/08/04 11:12:07;;;;;;;27.63;10.52;;;;;;;;;;4972513;28;20165;-83
2023/08/04 11:14:38;;;;;;;27.77;10.57;;;;;;;;;;4954320;28;20058;-82
2023/08/04 11:17:15;;;;;;;32.17;11.77;;;;;;;;;;4954129;28;20055;-81
2023/08/04 11:19:49;;;;;;;27.52;10.88;;;;;;;;;;4972173;28;20047;-81
2023/08/04 11:22:27;;;;;;;23.67;8.95;;;;;;;;;;4971554;28;20382;-83
2023/08/04 11:24:58;;;;;;;18.60;9.82;;;;;;;;;;4954980;28;20043;-82
2023/08/04 11:27:29;;;;;;;20.48;9.60;;;;;;;;;;4953840;28;20053;-83
2023/08/04 11:30:02;;;;;;;;;;;;;;;;;;4972457;28;20502;-83
2023/08/04 11:32:38;;;;;;;25.00;9.63;;;;;;;;;;4972401;28;20407;-82
2023/08/04 11:35:09;;;;;;;20.95;9.20;;;;;;;;;;4972385;28;20038;-82
2023/08/04 11:37:39;;;;;;;20.33;10.00;;;;;;;;;;4970924;28;20402;-81
2023/08/04 11:40:23;;;;;;;22.27;9.30;;;;;;;;;;4972261;28;20053;-82
2023/08/04 11:42:59;;;;;;;25.20;11.07;;;;;;;;;;4975409;28;20397;-81
2023/08/04 11:45:33;;;;;;;21.95;9.85;;;;;;;;;;4959481;28;20051;-82
2023/08/04 11:48:04;;;;;;;26.23;11.52;;;;;;;;;;4977302;28;20047;-82
2023/08/04 11:50:35;;;;;;;29.27;11.93;;;;;;;;;;4960428;28;20054;-82
2023/08/04 11:53:07;;;;;;;22.40;10.75;;;;;;;;;;4977518;28;20049;-82
2023/08/04 11:56:07;;;;;;;22.40;10.90;;;;;;;;;;4960516;28;20069;-82
2023/08/04 11:59:08;;;;;;;19.10;10.05;;;;;;;;;;4976786;28;20039;-83
2023/08/04 12:01:41;;;;;;;22.90;9.60;;;;;;;;;;4976979;28;20532;-82
2023/08/04 12:04:32;;;;;;;21.38;10.75;;;;;;;;;;4977062;28;20066;-82
2023/08/04 12:07:05;;;;;;;19.45;9.80;;;;;;;;;;4976128;28;20482;-82
2023/08/04 12:09:35;;;;;;;18.35;8.85;;;;;;;;;;4976841;28;20051;-81
2023/08/04 12:12:11;;;;;;;19.48;9.65;;;;;;;;;;4976313;28;20042;-82
2023/08/04 12:14:58;;;;;;;17.83;8.75;;;;;;;;;;4977468;28;20382;-81
2023/08/04 12:17:40;;;;;;;22.05;9.88;;;;;;;;;;4976762;28;20046;-81
2023/08/04 12:20:12;;;;;;;17.70;8.98;;;;;;;;;;4976992;28;20043;-81
2023/08/04 12:22:47;;;;;;;19.75;9.43;;;;;;;;;;4972182;28;20046;-82
2023/08/04 12:25:19;;;;;;;15.45;8.95;;;;;;;;;;4971512;28;20512;-82
2023/08/04 12:27:49;;;;;;;25.90;9.32;;;;;;;;;;4974154;28;20043;-83
2023/08/04 12:30:19;;;;;;;18.88;8.82;;;;;;;;;;4984139;28;20516;-82
2023/08/04 12:32:51;;;;;;;20.67;10.07;;;;;;;;;;4974351;28;20051;-80
2023/08/04 12:35:24;;;;;;;26.45;9.60;;;;;;;;;;4957577;29;20050;-81
2023/08/04 12:37:58;;;;;;;21.05;9.50;;;;;;;;;;4957505;29;20043;-83
2023/08/04 12:40:28;;;;;;;21.65;9.25;;;;;;;;;;4957171;29;20054;-80
2023/08/04 12:43:00;;;;;;;22.70;9.27;;;;;;;;;;4940278;29;20058;-82
2023/08/04 12:45:31;;;;;;;25.00;8.90;;;;;;;;;;4940288;29;20047;-82
2023/08/04 12:48:01;;;;;;;22.35;9.00;;;;;;;;;;4956968;29;20043;-81
2023/08/04 12:50:33;;;;;;;16.23;9.43;;;;;;;;;;4957706;29;20052;-79
2023/08/04 12:53:03;;;;;;;23.20;9.23;;;;;;;;;;4959482;28;20041;-82
2023/08/04 12:55:36;;;;;;;24.48;10.23;;;;;;;;;;4975640;28;20062;-83
2023/08/04 12:58:06;;;;;;;28.77;11.43;;;;;;;;;;4975968;28;20046;-82
2023/08/04 13:00:36;;;;;;;20.63;9.57;;;;;;;;;;4958106;28;20623;-82
2023/08/04 13:03:08;;;;;;;18.98;9.18;;;;;;;;;;4961603;28;20050;-81
2023/08/04 13:05:42;;;;;;;25.27;8.85;;;;;;;;;;4974787;28;20133;-82
2023/08/04 13:08:12;;;;;;;15.48;8.38;;;;;;;;;;4975432;28;20054;-82
2023/08/04 13:10:44;;;;;;;17.98;8.30;;;;;;;;;;4974703;28;20054;-81
2023/08/04 13:13:14;;;;;;;19.45;8.02;;;;;;;;;;4955698;29;20043;-83
2023/08/04 13:15:48;;;;;;;16.00;8.15;;;;;;;;;;4965798;28;20047;-83
2023/08/04 13:18:28;;;;;;;20.63;8.25;;;;;;;;;;4958422;28;20520;-83
2023/08/04 13:21:02;;;;;;;17.50;9.38;;;;;;;;;;4974597;28;20375;-83
2023/08/04 13:23:35;;;;;;;15.10;8.02;;;;;;;;;;4973776;28;20433;-84
2023/08/04 13:26:08;;;;;;;20.02;7.85;;;;;;;;;;4973391;28;20051;-85
2023/08/04 13:28:40;;;;;;;20.50;8.13;;;;;;;;;;4957782;28;20050;-82
2023/08/04 13:31:12;;;;;;;15.82;7.78;;;;;;;;;;4956259;28;20424;-83
2023/08/04 13:33:44;;;;;;;16.90;8.98;;;;;;;;;;4956374;28;20047;-83
2023/08/04 13:36:38;;;;;;;17.80;8.30;;;;;;;;;;4957135;28;20517;-84
2023/08/04 13:39:14;;;;;;;17.23;7.80;;;;;;;;;;4953356;28;20047;-84
2023/08/04 13:41:44;;;;;;;15.75;8.27;;;;;;;;;;4970680;28;20043;-82
2023/08/04 13:44:17;;;;;;;18.05;7.95;;;;;;;;;;4972978;28;20048;-83
2023/08/04 13:46:52;;;;;;;16.33;7.97;;;;;;;;;;4965557;28;20050;-82
2023/08/04 13:49:27;;;;;;;;;;;;;;;;;;4954160;29;20062;-83
2023/08/04 13:51:58;;;;;;;17.83;7.07;;;;;;;;;;4953157;29;19922;-83
2023/08/04 13:54:29;;;;;;;16.92;7.45;;;;;;;;;;4955844;28;20046;-82
2023/08/04 13:56:59;;;;;;;14.85;7.43;;;;;;;;;;4972653;28;20046;-82
2023/08/04 13:59:32;;;;;;;13.95;7.50;;;;;;;;;;4973814;28;20046;-81
2023/08/04 14:02:05;;;;;;;14.70;7.47;;;;;;;;;;4973302;28;20051;-80
2023/08/04 14:04:38;;;;;;;12.27;7.15;;;;;;;;;;4972868;28;20046;-80
2023/08/04 14:07:10;;;;;;;14.40;6.38;;;;;;;;;;4973440;28;20047;-81
2023/08/04 14:09:42;;;;;;;14.38;7.22;;;;;;;;;;4971935;28;20050;-80
2023/08/04 14:12:13;;;;;;;12.88;6.88;;;;;;;;;;4973155;28;20050;-81
2023/08/04 14:14:44;;;;;;;15.85;6.45;;;;;;;;;;4973403;28;20047;-79
2023/08/04 14:17:14;;;;;;;15.05;6.07;;;;;;;;;;4973292;28;20070;-81
2023/08/04 14:19:48;;;;;;;17.10;6.68;;;;;;;;;;4973544;28;20161;-80
2023/08/04 14:22:22;;;;;;;12.30;6.45;;;;;;;;;;4973370;28;20516;-81
2023/08/04 14:24:54;;;;;;;14.55;5.88;;;;;;;;;;4971173;28;20059;-81
2023/08/04 14:27:26;;;;;;;10.48;5.53;;;;;;;;;;4973215;28;20441;-82
2023/08/04 14:30:02;;;;;;;18.92;7.15;;;;;;;;;;4956837;28;20146;-81
2023/08/04 14:32:34;;;;;;;13.65;6.03;;;;;;;;;;4973062;28;20536;-81
2023/08/04 14:35:05;;;;;;;;;;;;;;;;;;4973400;28;20051;-81
2023/08/04 14:37:36;;;;;;;13.60;5.90;;;;;;;;;;4973307;28;19922;-81
2023/08/04 14:40:11;;;;;;;15.95;7.22;;;;;;;;;;4963377;28;20510;-79
2023/08/04 14:42:43;;;;;;;18.67;5.88;;;;;;;;;;4952623;29;20047;-83
2023/08/04 14:45:14;;;;;;;12.88;6.53;;;;;;;;;;4967503;28;20059;-82
2023/08/04 14:47:44;;;;;;;16.33;6.00;;;;;;;;;;4951882;28;20128;-83
2023/08/04 14:50:17;;;;;;;10.68;5.15;;;;;;;;;;4953557;29;20043;-81
2023/08/04 14:52:50;;;;;;;14.23;5.90;;;;;;;;;;4953656;29;20050;-82
2023/08/04 14:55:20;;;;;;;11.15;6.38;;;;;;;;;;4953790;29;20047;-82
2023/08/04 14:57:51;;;;;;;18.17;6.47;;;;;;;;;;4953913;29;20047;-84
2023/08/04 15:00:24;;;;;;;12.40;6.07;;;;;;;;;;4952328;29;20043;-84
2023/08/04 15:02:55;;;;;;;9.25;4.82;;;;;;;;;;4935442;29;20062;-82